sensor_id;sensor_type;location;lat;lon;timestamp;pressure;altitude;pressure_sealevel;temperature;humidity
30614;BME280;17381;51.690;5.270;2023-02-20T00:03:34;102576.38;;;5.89;87.76
30614;BME280;17381;51.690;5.270;2023-02-20T00:07:07;102565.06;;;5.90;87.08
30614;BME280;17381;51.690;5.270;2023-02-20T00:10:15;102561.53;;;5.88;86.93
30614;BME280;17381;51.690;5.270;2023-02-20T00:17:21;102551.09;;;5.88;86.69
30614;BME280;17381;51.690;5.270;2023-02-20T00:20:09;102532.75;;;5.84;86.60
30614;BME280;17381;51.690;5.270;2023-02-20T00:23:05;102534.66;;;5.93;86.58
30614;BME280;17381;51.690;5.270;2023-02-20T00:36:29;102470.59;;;5.63;86.62
30614;BME280;17381;51.690;5.270;2023-02-20T00:51:09;102490.88;;;5.78;86.48
30614;BME280;17381;51.690;5.270;2023-02-20T01:36:00;102490.78;;;5.32;88.01
30614;BME280;17381;51.690;5.270;2023-02-20T01:49:38;102408.50;;;5.06;88.39
30614;BME280;17381;51.690;5.270;2023-02-20T01:52:33;102421.84;;;5.19;88.42
30614;BME280;17381;51.690;5.270;2023-02-20T01:55:57;102420.97;;;5.19;88.57
30614;BME280;17381;51.690;5.270;2023-02-20T02:13:02;102380.63;;;5.01;90.17
30614;BME280;17381;51.690;5.270;2023-02-20T02:15:47;102391.06;;;5.03;90.08
30614;BME280;17381;51.690;5.270;2023-02-20T02:45:11;102373.19;;;5.20;92.52
30614;BME280;17381;51.690;5.270;2023-02-20T02:48:19;102363.03;;;5.32;92.52
30614;BME280;17381;51.690;5.270;2023-02-20T02:51:07;102365.81;;;5.41;92.57
30614;BME280;17381;51.690;5.270;2023-02-20T02:56:53;102354.91;;;5.61;92.45
30614;BME280;17381;51.690;5.270;2023-02-20T03:03:15;102338.63;;;5.74;92.51
30614;BME280;17381;51.690;5.270;2023-02-20T03:06:08;102315.84;;;5.64;92.47
30614;BME280;17381;51.690;5.270;2023-02-20T03:08:59;102338.81;;;5.85;92.25
30614;BME280;17381;51.690;5.270;2023-02-20T03:18:44;102345.06;;;5.93;92.19
30614;BME280;17381;51.690;5.270;2023-02-20T03:21:31;102326.66;;;5.84;92.05
30614;BME280;17381;51.690;5.270;2023-02-20T03:24:19;102334.59;;;5.92;91.96
30614;BME280;17381;51.690;5.270;2023-02-20T03:26:59;102308.34;;;5.81;92.13
30614;BME280;17381;51.690;5.270;2023-02-20T03:29:40;102325.22;;;6.00;92.44
30614;BME280;17381;51.690;5.270;2023-02-20T03:32:25;102312.88;;;5.93;92.07
30614;BME280;17381;51.690;5.270;2023-02-20T03:35:26;102324.34;;;6.01;92.58
30614;BME280;17381;51.690;5.270;2023-02-20T03:38:26;102325.28;;;6.04;92.50
30614;BME280;17381;51.690;5.270;2023-02-20T03:41:19;102322.72;;;6.07;92.26
30614;BME280;17381;51.690;5.270;2023-02-20T03:44:21;102322.78;;;6.10;92.50
30614;BME280;17381;51.690;5.270;2023-02-20T03:47:01;102326.38;;;6.19;92.63
30614;BME280;17381;51.690;5.270;2023-02-20T03:49:48;102319.47;;;6.21;92.84
30614;BME280;17381;51.690;5.270;2023-02-20T03:52:38;102328.28;;;6.29;92.32
30614;BME280;17381;51.690;5.270;2023-02-20T03:55:17;102323.09;;;6.30;92.42
30614;BME280;17381;51.690;5.270;2023-02-20T03:58:18;102325.81;;;6.37;92.83
30614;BME280;17381;51.690;5.270;2023-02-20T04:00:55;102337.25;;;6.43;92.47
30614;BME280;17381;51.690;5.270;2023-02-20T04:03:40;102340.84;;;6.51;92.14
30614;BME280;17381;51.690;5.270;2023-02-20T04:14:22;102332.28;;;6.62;92.18
30614;BME280;17381;51.690;5.270;2023-02-20T04:17:19;102332.38;;;6.68;91.90
30614;BME280;17381;51.690;5.270;2023-02-20T04:20:05;102335.88;;;6.70;91.71
30614;BME280;17381;51.690;5.270;2023-02-20T04:23:14;102334.25;;;6.76;91.98
30614;BME280;17381;51.690;5.270;2023-02-20T04:41:00;102337.00;;;6.87;90.90
30614;BME280;17381;51.690;5.270;2023-02-20T04:43:43;102330.00;;;6.85;90.71
30614;BME280;17381;51.690;5.270;2023-02-20T04:46:23;102345.75;;;6.91;90.59
30614;BME280;17381;51.690;5.270;2023-02-20T04:49:23;102330.06;;;6.91;90.59
30614;BME280;17381;51.690;5.270;2023-02-20T04:52:06;102335.38;;;6.95;90.11
30614;BME280;17381;51.690;5.270;2023-02-20T04:54:45;102302.91;;;6.78;89.95
30614;BME280;17381;51.690;5.270;2023-02-20T05:00:38;102339.75;;;6.99;89.66
30614;BME280;17381;51.690;5.270;2023-02-20T05:03:58;102345.06;;;7.04;89.67
30614;BME280;17381;51.690;5.270;2023-02-20T05:06:49;102345.97;;;7.06;89.33
30614;BME280;17381;51.690;5.270;2023-02-20T05:09:29;102335.50;;;7.06;89.44
30614;BME280;17381;51.690;5.270;2023-02-20T05:12:06;102308.22;;;6.86;89.12
30614;BME280;17381;51.690;5.270;2023-02-20T05:14:46;102304.91;;;6.97;88.68
30614;BME280;17381;51.690;5.270;2023-02-20T05:17:27;102343.50;;;7.18;88.95
30614;BME280;17381;51.690;5.270;2023-02-20T05:20:30;102325.13;;;7.12;89.03
30614;BME280;17381;51.690;5.270;2023-02-20T05:23:23;102334.81;;;7.22;88.30
30614;BME280;17381;51.690;5.270;2023-02-20T05:25:54;102340.97;;;7.25;88.87
30614;BME280;17381;51.690;5.270;2023-02-20T05:28:27;102308.56;;;7.12;88.29
30614;BME280;17381;51.690;5.270;2023-02-20T05:31:05;102337.53;;;7.29;88.40
30614;BME280;17381;51.690;5.270;2023-02-20T05:33:53;102331.47;;;7.31;87.71
30614;BME280;17381;51.690;5.270;2023-02-20T05:41:06;102328.84;;;7.31;87.59
30614;BME280;17381;51.690;5.270;2023-02-20T05:44:06;102329.69;;;7.30;87.13
30614;BME280;17381;51.690;5.270;2023-02-20T05:46:48;102331.53;;;7.36;86.88
30614;BME280;17381;51.690;5.270;2023-02-20T05:49:32;102330.66;;;7.37;87.23
30614;BME280;17381;51.690;5.270;2023-02-20T05:52:35;102324.56;;;7.39;86.94
30614;BME280;17381;51.690;5.270;2023-02-20T05:55:16;102314.91;;;7.32;86.65
30614;BME280;17381;51.690;5.270;2023-02-20T05:57:59;102332.47;;;7.41;86.83
30614;BME280;17381;51.690;5.270;2023-02-20T06:04:44;102323.78;;;7.43;86.53
30614;BME280;17381;51.690;5.270;2023-02-20T06:07:21;102328.16;;;7.46;86.55
30614;BME280;17381;51.690;5.270;2023-02-20T06:10:24;102321.19;;;7.48;85.95
30614;BME280;17381;51.690;5.270;2023-02-20T06:13:27;102318.56;;;7.48;85.99
30614;BME280;17381;51.690;5.270;2023-02-20T06:16:53;102320.31;;;7.46;86.35
30614;BME280;17381;51.690;5.270;2023-02-20T06:19:42;102270.25;;;7.14;85.78
30614;BME280;17381;51.690;5.270;2023-02-20T06:22:33;102330.78;;;7.46;85.87
30614;BME280;17381;51.690;5.270;2023-02-20T06:25:33;102333.38;;;7.48;86.28
30614;BME280;17381;51.690;5.270;2023-02-20T06:28:25;102326.38;;;7.45;85.67
30614;BME280;17381;51.690;5.270;2023-02-20T06:31:46;102340.41;;;7.52;85.85
30614;BME280;17381;51.690;5.270;2023-02-20T06:34:32;102324.63;;;7.46;85.21
30614;BME280;17381;51.690;5.270;2023-02-20T06:37:12;102323.78;;;7.48;85.25
30614;BME280;17381;51.690;5.270;2023-02-20T06:40:01;102329.97;;;7.55;85.21
30614;BME280;17381;51.690;5.270;2023-02-20T06:42:44;102330.84;;;7.55;85.33
30614;BME280;17381;51.690;5.270;2023-02-20T06:45:29;102324.78;;;7.58;84.84
30614;BME280;17381;51.690;5.270;2023-02-20T06:48:18;102336.09;;;7.55;85.03
30614;BME280;17381;51.690;5.270;2023-02-20T06:51:02;102316.03;;;7.56;84.83
30614;BME280;17381;51.690;5.270;2023-02-20T06:53:52;102332.66;;;7.59;84.96
30614;BME280;17381;51.690;5.270;2023-02-20T07:03:14;102322.22;;;7.62;84.38
30614;BME280;17381;51.690;5.270;2023-02-20T07:06:18;102325.69;;;7.61;84.70
30614;BME280;17381;51.690;5.270;2023-02-20T07:09:06;102325.69;;;7.61;84.51
30614;BME280;17381;51.690;5.270;2023-02-20T07:11:51;102322.25;;;7.65;84.26
30614;BME280;17381;51.690;5.270;2023-02-20T07:14:44;102326.59;;;7.67;84.52
30614;BME280;17381;51.690;5.270;2023-02-20T07:17:25;102324.06;;;7.73;84.40
30614;BME280;17381;51.690;5.270;2023-02-20T07:20:12;102322.25;;;7.65;84.40
30614;BME280;17381;51.690;5.270;2023-02-20T07:23:52;102329.31;;;7.73;84.38
30614;BME280;17381;51.690;5.270;2023-02-20T07:27:14;102331.03;;;7.71;84.71
30614;BME280;17381;51.690;5.270;2023-02-20T07:29:53;102336.28;;;7.74;84.60
30614;BME280;17381;51.690;5.270;2023-02-20T07:32:36;102335.44;;;7.76;84.25
30614;BME280;17381;51.690;5.270;2023-02-20T07:39:28;102340.72;;;7.81;83.86
30614;BME280;17381;51.690;5.270;2023-02-20T07:53:37;102338.13;;;7.82;84.36
30614;BME280;17381;51.690;5.270;2023-02-20T08:16:24;102326.00;;;7.94;84.83
30614;BME280;17381;51.690;5.270;2023-02-20T08:19:00;102325.13;;;7.93;84.20
30614;BME280;17381;51.690;5.270;2023-02-20T08:21:47;102278.69;;;7.71;84.45
30614;BME280;17381;51.690;5.270;2023-02-20T08:24:32;102319.13;;;8.03;84.04
30614;BME280;17381;51.690;5.270;2023-02-20T08:27:12;102317.38;;;8.04;84.59
30614;BME280;17381;51.690;5.270;2023-02-20T08:30:14;102316.56;;;8.11;84.67
30614;BME280;17381;51.690;5.270;2023-02-20T08:32:54;102277.13;;;7.91;84.46
30614;BME280;17381;51.690;5.270;2023-02-20T08:35:53;102313.16;;;8.21;83.72
30614;BME280;17381;51.690;5.270;2023-02-20T08:39:05;102320.16;;;8.25;84.26
30614;BME280;17381;51.690;5.270;2023-02-20T08:41:54;102324.56;;;8.31;84.65
30614;BME280;17381;51.690;5.270;2023-02-20T08:44:43;102320.25;;;8.35;83.89
30614;BME280;17381;51.690;5.270;2023-02-20T08:47:29;102319.31;;;8.31;83.53
30614;BME280;17381;51.690;5.270;2023-02-20T08:50:16;102308.03;;;8.38;83.98
30614;BME280;17381;51.690;5.270;2023-02-20T08:53:18;102316.84;;;8.43;83.50
30614;BME280;17381;51.690;5.270;2023-02-20T08:56:02;102302.00;;;8.42;83.73
30614;BME280;17381;51.690;5.270;2023-02-20T08:58:41;102313.38;;;8.50;84.07
30614;BME280;17381;51.690;5.270;2023-02-20T09:01:43;102312.53;;;8.50;83.59
30614;BME280;17381;51.690;5.270;2023-02-20T09:04:54;102285.25;;;8.28;83.72
30614;BME280;17381;51.690;5.270;2023-02-20T09:08:00;102321.28;;;8.52;83.43
30614;BME280;17381;51.690;5.270;2023-02-20T09:15:02;102308.22;;;8.61;83.21
30614;BME280;17381;51.690;5.270;2023-02-20T09:18:21;102319.63;;;8.68;83.14
30614;BME280;17381;51.690;5.270;2023-02-20T09:21:25;102323.13;;;8.74;82.95
30614;BME280;17381;51.690;5.270;2023-02-20T09:24:08;102318.75;;;8.67;82.95
30614;BME280;17381;51.690;5.270;2023-02-20T09:30:17;102325.78;;;8.76;82.37
30614;BME280;17381;51.690;5.270;2023-02-20T09:33:23;102332.75;;;8.72;82.90
30614;BME280;17381;51.690;5.270;2023-02-20T09:36:20;102324.03;;;8.73;82.88
30614;BME280;17381;51.690;5.270;2023-02-20T09:39:06;102304.78;;;8.68;82.88
30614;BME280;17381;51.690;5.270;2023-02-20T09:52:33;102321.38;;;8.69;82.81
30614;BME280;17381;51.690;5.270;2023-02-20T09:55:37;102324.88;;;8.74;83.37
30614;BME280;17381;51.690;5.270;2023-02-20T10:11:40;102294.25;;;8.62;83.40
30614;BME280;17381;51.690;5.270;2023-02-20T10:14:28;102321.44;;;8.81;83.22
30614;BME280;17381;51.690;5.270;2023-02-20T10:26:08;102327.56;;;8.82;83.07
30614;BME280;17381;51.690;5.270;2023-02-20T10:28:41;102300.41;;;8.69;82.66
30614;BME280;17381;51.690;5.270;2023-02-20T10:31:40;102321.44;;;8.81;82.91
30614;BME280;17381;51.690;5.270;2023-02-20T10:34:40;102323.19;;;8.84;83.35
30614;BME280;17381;51.690;5.270;2023-02-20T10:37:35;102311.84;;;8.88;83.66
30614;BME280;17381;51.690;5.270;2023-02-20T10:41:04;102310.13;;;8.88;83.58
30614;BME280;17381;51.690;5.270;2023-02-20T10:44:14;102298.69;;;8.74;83.68
30614;BME280;17381;51.690;5.270;2023-02-20T10:47:27;102330.22;;;8.86;83.95
30614;BME280;17381;51.690;5.270;2023-02-20T10:50:22;102319.66;;;8.80;84.60
30614;BME280;17381;51.690;5.270;2023-02-20T10:57:09;102290.75;;;8.60;84.07
30614;BME280;17381;51.690;5.270;2023-02-20T11:03:35;102321.47;;;8.86;84.74
30614;BME280;17381;51.690;5.270;2023-02-20T11:10:07;102336.31;;;8.84;85.55
30614;BME280;17381;51.690;5.270;2023-02-20T11:15:29;102277.69;;;8.68;85.10
30614;BME280;17381;51.690;5.270;2023-02-20T11:18:18;102321.47;;;8.89;85.27
30614;BME280;17381;51.690;5.270;2023-02-20T11:23:46;102333.75;;;8.98;85.39
30614;BME280;17381;51.690;5.270;2023-02-20T11:30:25;102298.81;;;8.99;85.54
30614;BME280;17381;51.690;5.270;2023-02-20T11:37:03;102255.03;;;8.84;84.64
30614;BME280;17381;51.690;5.270;2023-02-20T11:48:00;102270.06;;;9.29;84.07
30614;BME280;17381;51.690;5.270;2023-02-20T12:41:07;102201.81;;;10.14;78.65
30614;BME280;17381;51.690;5.270;2023-02-20T12:49:03;102194.84;;;10.05;79.04
30614;BME280;17381;51.690;5.270;2023-02-20T13:21:13;102222.88;;;9.75;79.71
30614;BME280;17381;51.690;5.270;2023-02-20T13:24:47;102215.00;;;9.78;78.93
30614;BME280;17381;51.690;5.270;2023-02-20T13:32:33;102198.34;;;9.70;79.79
30614;BME280;17381;51.690;5.270;2023-02-20T13:47:29;102216.72;;;9.55;79.94
30614;BME280;17381;51.690;5.270;2023-02-20T13:58:33;102161.59;;;9.63;79.70
30614;BME280;17381;51.690;5.270;2023-02-20T14:21:04;102141.47;;;9.81;78.90
30614;BME280;17381;51.690;5.270;2023-02-20T14:24:32;102142.34;;;9.79;79.02
30614;BME280;17381;51.690;5.270;2023-02-20T14:32:03;102121.34;;;9.82;79.41
30614;BME280;17381;51.690;5.270;2023-02-20T14:35:06;102092.47;;;9.65;78.97
30614;BME280;17381;51.690;5.270;2023-02-20T14:42:00;102133.59;;;9.81;78.87
30614;BME280;17381;51.690;5.270;2023-02-20T14:45:19;102099.50;;;9.57;78.66
30614;BME280;17381;51.690;5.270;2023-02-20T14:48:51;102095.16;;;9.53;78.93
30614;BME280;17381;51.690;5.270;2023-02-20T14:52:26;102139.75;;;9.76;79.42
30614;BME280;17381;51.690;5.270;2023-02-20T14:55:24;102113.50;;;9.57;79.22
30614;BME280;17381;51.690;5.270;2023-02-20T15:10:22;102120.50;;;9.66;80.13
30614;BME280;17381;51.690;5.270;2023-02-20T15:17:37;102121.38;;;9.68;79.05
30614;BME280;17381;51.690;5.270;2023-02-20T15:20:41;102108.25;;;9.59;79.04
30614;BME280;17381;51.690;5.270;2023-02-20T15:23:43;102113.50;;;9.62;79.80
30614;BME280;17381;51.690;5.270;2023-02-20T15:26:50;102108.25;;;9.62;79.54
30614;BME280;17381;51.690;5.270;2023-02-20T15:30:28;102107.34;;;9.60;79.74
30614;BME280;17381;51.690;5.270;2023-02-20T15:33:26;102097.75;;;9.59;79.61
30614;BME280;17381;51.690;5.270;2023-02-20T15:39:54;102101.25;;;9.58;79.70
30614;BME280;17381;51.690;5.270;2023-02-20T15:46:00;102076.75;;;9.56;79.27
30614;BME280;17381;51.690;5.270;2023-02-20T15:49:03;102089.00;;;9.58;79.66
30614;BME280;17381;51.690;5.270;2023-02-20T16:02:23;102111.75;;;9.61;80.41
30614;BME280;17381;51.690;5.270;2023-02-20T16:05:42;102117.00;;;9.58;80.02
30614;BME280;17381;51.690;5.270;2023-02-20T16:08:36;102052.31;;;9.22;80.46
30614;BME280;17381;51.690;5.270;2023-02-20T16:11:46;102101.25;;;9.49;80.67
30614;BME280;17381;51.690;5.270;2023-02-20T16:14:34;102074.16;;;9.37;80.16
30614;BME280;17381;51.690;5.270;2023-02-20T16:17:39;102053.19;;;9.25;80.38
30614;BME280;17381;51.690;5.270;2023-02-20T16:20:35;102116.97;;;9.63;80.69
30614;BME280;17381;51.690;5.270;2023-02-20T16:23:28;102125.75;;;9.63;80.55
30614;BME280;17381;51.690;5.270;2023-02-20T16:26:53;102131.88;;;9.60;80.59
30614;BME280;17381;51.690;5.270;2023-02-20T16:37:08;102092.50;;;9.34;80.43
30614;BME280;17381;51.690;5.270;2023-02-20T16:44:10;102127.50;;;9.55;80.96
30614;BME280;17381;51.690;5.270;2023-02-20T16:47:30;102105.63;;;9.47;80.80
30614;BME280;17381;51.690;5.270;2023-02-20T16:50:27;102126.63;;;9.50;80.72
30614;BME280;17381;51.690;5.270;2023-02-20T16:57:47;102127.50;;;9.49;80.98
30614;BME280;17381;51.690;5.270;2023-02-20T17:01:16;102129.25;;;9.50;81.19
30614;BME280;17381;51.690;5.270;2023-02-20T17:04:38;102120.53;;;9.48;81.21
30614;BME280;17381;51.690;5.270;2023-02-20T17:07:30;102090.78;;;9.27;81.21
30614;BME280;17381;51.690;5.270;2023-02-20T17:10:14;102120.50;;;9.46;81.15
30614;BME280;17381;51.690;5.270;2023-02-20T17:17:33;102129.25;;;9.47;81.14
30614;BME280;17381;51.690;5.270;2023-02-20T17:25:01;102120.50;;;9.34;80.92
30614;BME280;17381;51.690;5.270;2023-02-20T17:30:42;102105.66;;;9.37;81.37
30614;BME280;17381;51.690;5.270;2023-02-20T17:33:54;102118.75;;;9.41;81.58
30614;BME280;17381;51.690;5.270;2023-02-20T17:48:13;102114.38;;;9.33;81.99
30614;BME280;17381;51.690;5.270;2023-02-20T17:51:27;102108.28;;;9.19;82.06
30614;BME280;17381;51.690;5.270;2023-02-20T17:54:09;102124.03;;;9.37;81.48
30614;BME280;17381;51.690;5.270;2023-02-20T17:57:54;102125.75;;;9.42;81.95
30614;BME280;17381;51.690;5.270;2023-02-20T18:00:49;102140.63;;;9.38;81.77
30614;BME280;17381;51.690;5.270;2023-02-20T18:03:57;102131.00;;;9.35;82.16
30614;BME280;17381;51.690;5.270;2023-02-20T18:06:52;102145.88;;;9.38;81.74
30614;BME280;17381;51.690;5.270;2023-02-20T18:09:47;102147.63;;;9.41;82.35
30614;BME280;17381;51.690;5.270;2023-02-20T18:12:34;102145.88;;;9.38;81.91
30614;BME280;17381;51.690;5.270;2023-02-20T18:15:18;102153.75;;;9.43;81.93
30614;BME280;17381;51.690;5.270;2023-02-20T18:18:15;102128.38;;;9.40;81.93
30614;BME280;17381;51.690;5.270;2023-02-20T18:21:30;102111.78;;;9.24;81.98
30614;BME280;17381;51.690;5.270;2023-02-20T18:24:27;102141.50;;;9.42;82.40
30614;BME280;17381;51.690;5.270;2023-02-20T18:27:08;102141.50;;;9.42;82.45
30614;BME280;17381;51.690;5.270;2023-02-20T18:30:09;102120.53;;;9.32;82.42
30614;BME280;17381;51.690;5.270;2023-02-20T18:33:08;102148.50;;;9.46;82.00
30614;BME280;17381;51.690;5.270;2023-02-20T18:35:39;102146.75;;;9.42;82.23
30614;BME280;17381;51.690;5.270;2023-02-20T18:38:08;102131.00;;;9.35;82.22
30614;BME280;17381;51.690;5.270;2023-02-20T18:40:47;102149.38;;;9.46;82.08
30614;BME280;17381;51.690;5.270;2023-02-20T18:44:03;102145.88;;;9.46;82.57
30614;BME280;17381;51.690;5.270;2023-02-20T18:46:37;102149.38;;;9.46;82.15
30614;BME280;17381;51.690;5.270;2023-02-20T18:49:13;102102.16;;;9.28;81.70
30614;BME280;17381;51.690;5.270;2023-02-20T18:51:56;102120.50;;;9.34;82.09
30614;BME280;17381;51.690;5.270;2023-02-20T18:54:38;102131.00;;;9.43;82.24
30614;BME280;17381;51.690;5.270;2023-02-20T19:05:25;102123.13;;;9.37;82.31
30614;BME280;17381;51.690;5.270;2023-02-20T19:08:44;102107.41;;;9.29;82.76
30614;BME280;17381;51.690;5.270;2023-02-20T19:12:07;102118.75;;;9.34;83.17
30614;BME280;17381;51.690;5.270;2023-02-20T19:15:05;102130.13;;;9.33;82.60
30614;BME280;17381;51.690;5.270;2023-02-20T19:18:31;102110.88;;;9.31;82.79
30614;BME280;17381;51.690;5.270;2023-02-20T19:22:12;102089.03;;;9.17;83.21
30614;BME280;17381;51.690;5.270;2023-02-20T19:24:50;102090.78;;;9.12;83.08
30614;BME280;17381;51.690;5.270;2023-02-20T19:27:58;102129.25;;;9.34;83.26
30614;BME280;17381;51.690;5.270;2023-02-20T19:30:58;102116.16;;;9.30;83.30
30614;BME280;17381;51.690;5.270;2023-02-20T19:33:53;102116.13;;;9.31;83.09
30614;BME280;17381;51.690;5.270;2023-02-20T19:40:21;102110.03;;;9.29;83.46
30614;BME280;17381;51.690;5.270;2023-02-20T19:47:18;102118.75;;;9.28;83.83
30614;BME280;17381;51.690;5.270;2023-02-20T19:58:11;102120.50;;;9.26;83.44
30614;BME280;17381;51.690;5.270;2023-02-20T20:09:11;102101.28;;;9.15;83.25
30614;BME280;17381;51.690;5.270;2023-02-20T20:12:16;102113.50;;;9.16;83.47
30614;BME280;17381;51.690;5.270;2023-02-20T20:15:37;102116.13;;;9.17;83.84
30614;BME280;17381;51.690;5.270;2023-02-20T20:22:25;102103.88;;;9.10;83.46
30614;BME280;17381;51.690;5.270;2023-02-20T20:28:23;102106.53;;;9.12;83.68
30614;BME280;17381;51.690;5.270;2023-02-20T20:31:31;102110.00;;;9.11;84.06
30614;BME280;17381;51.690;5.270;2023-02-20T20:34:45;102082.03;;;8.94;84.13
30614;BME280;17381;51.690;5.270;2023-02-20T20:41:16;102103.88;;;9.15;83.59
30614;BME280;17381;51.690;5.270;2023-02-20T21:10:02;102096.91;;;9.09;84.62
30614;BME280;17381;51.690;5.270;2023-02-20T22:03:09;102069.75;;;8.90;86.49
30614;BME280;17381;51.690;5.270;2023-02-20T22:31:47;102059.28;;;8.81;87.43
30614;BME280;17381;51.690;5.270;2023-02-20T22:34:44;102068.00;;;8.80;87.12
30614;BME280;17381;51.690;5.270;2023-02-20T22:37:52;102065.41;;;8.85;86.99
30614;BME280;17381;51.690;5.270;2023-02-20T22:41:21;102070.66;;;8.86;87.50
30614;BME280;17381;51.690;5.270;2023-02-20T22:44:41;102053.19;;;8.81;87.51
30614;BME280;17381;51.690;5.270;2023-02-20T22:48:04;102047.06;;;8.83;87.33
30614;BME280;17381;51.690;5.270;2023-02-20T22:50:58;102048.78;;;8.84;87.16
30614;BME280;17381;51.690;5.270;2023-02-20T22:53:54;102047.06;;;8.83;87.05
30614;BME280;17381;51.690;5.270;2023-02-20T23:00:43;102052.28;;;8.77;87.37
30614;BME280;17381;51.690;5.270;2023-02-20T23:07:39;102057.53;;;8.79;87.33
30614;BME280;17381;51.690;5.270;2023-02-20T23:14:11;102006.81;;;8.46;88.01
30614;BME280;17381;51.690;5.270;2023-02-20T23:17:01;102048.78;;;8.75;87.50
30614;BME280;17381;51.690;5.270;2023-02-20T23:19:54;102045.28;;;8.78;86.99
30614;BME280;17381;51.690;5.270;2023-02-20T23:22:55;102066.25;;;8.82;87.13
30614;BME280;17381;51.690;5.270;2023-02-20T23:25:40;102054.03;;;8.84;87.31
30614;BME280;17381;51.690;5.270;2023-02-20T23:28:41;102022.56;;;8.63;87.14
30614;BME280;17381;51.690;5.270;2023-02-20T23:31:41;102003.34;;;8.58;87.57
30614;BME280;17381;51.690;5.270;2023-02-20T23:34:35;102021.69;;;8.61;87.46
